Time;durP1;ratioP1;P1;durP2;ratioP2;P2;SDS_P1;SDS_P2;PMS_P1;PMS_P2;Temp;Humidity;BMP_temperature;BMP_pressure;BME280_temperature;BME280_humidity;BME280_pressure;Samples;Min_cycle;Max_cycle;Signal;HPM_P1;HPM_P2
2024/01/30 00:00:04;;;;;;;34.70;20.83;;;;;;;-1.46;nan;97275.19;2065316;28;20057;-61
2024/01/30 00:01:06;;;;;;;31.13;18.08;;;;;;;-1.47;nan;97276.03;2065799;28;20042;-62
2024/01/30 00:02:07;;;;;;;32.90;20.13;;;;;;;-1.45;nan;97270.97;2065622;28;20057;-61
2024/01/30 00:03:08;;;;;;;34.17;19.42;;;;;;;-1.46;nan;97271.81;2065571;28;20116;-62
2024/01/30 00:04:09;;;;;;;38.78;20.38;;;;;;;-1.50;nan;97270.00;2056990;28;20091;-59
2024/01/30 00:05:10;;;;;;;36.55;19.75;;;;;;;-1.53;nan;97265.69;2056903;28;20054;-61
2024/01/30 00:06:12;;;;;;;35.78;19.73;;;;;;;-1.54;nan;97269.09;2065737;28;20046;-61
2024/01/30 00:07:13;;;;;;;35.72;19.65;;;;;;;-1.60;nan;97267.28;2065537;28;20050;-61
2024/01/30 00:08:14;;;;;;;34.70;20.60;;;;;;;-1.50;nan;97270.84;2065065;28;20050;-61
2024/01/30 00:09:15;;;;;;;31.67;19.13;;;;;;;-1.51;nan;97273.38;2064983;28;20062;-61
2024/01/30 00:10:16;;;;;;;36.88;20.45;;;;;;;-1.59;nan;97268.13;2064968;28;20054;-62
2024/01/30 00:11:17;;;;;;;35.30;20.58;;;;;;;-1.61;nan;97264.69;2065266;28;20050;-62
2024/01/30 00:12:18;;;;;;;31.67;19.40;;;;;;;-1.65;nan;97266.31;2065409;28;20039;-61
2024/01/30 00:13:19;;;;;;;39.40;20.90;;;;;;;-1.66;nan;97273.91;2065791;28;20049;-61
2024/01/30 00:14:20;;;;;;;36.15;20.27;;;;;;;-1.57;nan;97269.03;2065522;28;20042;-62
2024/01/30 00:15:21;;;;;;;38.10;18.85;;;;;;;-1.64;nan;97267.19;2065572;28;20038;-61
2024/01/30 00:16:26;;;;;;;36.42;20.30;;;;;;;-1.70;nan;97262.81;2065735;28;20042;-62
2024/01/30 00:17:28;;;;;;;34.38;19.55;;;;;;;-1.69;nan;97261.97;2065615;28;20039;-61
2024/01/30 00:18:29;;;;;;;37.53;20.48;;;;;;;-1.68;nan;97270.50;2064644;28;20061;-61
2024/01/30 00:19:31;;;;;;;40.10;21.45;;;;;;;-1.71;nan;97273.84;2065823;28;20050;-60
2024/01/30 00:20:32;;;;;;;36.95;19.80;;;;;;;-1.73;nan;97272.09;2066067;28;20053;-62
2024/01/30 00:21:33;;;;;;;33.30;19.95;;;;;;;-1.79;nan;97265.19;2066246;28;20039;-60
2024/01/30 00:22:34;;;;;;;33.65;19.52;;;;;;;-1.76;nan;97270.34;2066963;28;20493;-59
2024/01/30 00:23:35;;;;;;;35.15;19.65;;;;;;;-1.79;nan;97266.03;2065678;28;20046;-59
2024/01/30 00:24:36;;;;;;;34.65;20.25;;;;;;;-1.81;nan;97272.78;2065739;28;20041;-59
2024/01/30 00:25:37;;;;;;;32.80;18.30;;;;;;;-1.75;nan;97271.19;2065790;28;20045;-59
2024/01/30 00:26:38;;;;;;;35.13;20.13;;;;;;;-1.77;nan;97271.16;2065762;28;20057;-62
2024/01/30 00:27:39;;;;;;;35.33;20.50;;;;;;;-1.79;nan;97265.19;2065386;28;20073;-60
2024/01/30 00:28:41;;;;;;;37.70;20.20;;;;;;;-1.85;nan;97265.88;2065572;28;20049;-59
2024/01/30 00:29:42;;;;;;;32.90;19.98;;;;;;;-1.85;nan;97265.88;2065718;28;20046;-59
2024/01/30 00:30:44;;;;;;;36.45;20.08;;;;;;;-1.85;nan;97267.59;2065013;28;20436;-60
2024/01/30 00:31:45;;;;;;;32.60;19.40;;;;;;;-1.87;nan;97265.03;2064786;28;20066;-60
2024/01/30 00:32:46;;;;;;;34.63;20.30;;;;;;;-1.88;nan;97260.72;2065551;28;20402;-60
2024/01/30 00:33:47;;;;;;;37.65;21.17;;;;;;;-1.81;nan;97269.38;2066140;28;20054;-62
2024/01/30 00:34:48;;;;;;;33.40;19.58;;;;;;;-1.87;nan;97269.22;2066224;28;20069;-60
2024/01/30 00:35:50;;;;;;;34.67;20.10;;;;;;;-1.91;nan;97262.38;2067031;28;20383;-59
2024/01/30 00:36:51;;;;;;;39.35;21.83;;;;;;;-1.89;nan;97268.34;2067074;28;20061;-59
2024/01/30 00:37:52;;;;;;;45.35;22.02;;;;;;;-1.88;nan;97263.28;2067336;28;20046;-59
2024/01/30 00:38:53;;;;;;;38.95;21.88;;;;;;;-1.84;nan;97270.16;2066384;28;20497;-59
2024/01/30 00:39:54;;;;;;;37.83;20.80;;;;;;;-1.85;nan;97272.66;2058141;28;20050;-60
2024/01/30 00:40:55;;;;;;;36.55;20.25;;;;;;;-1.84;nan;97266.78;2058376;28;20047;-59
2024/01/30 00:41:56;;;;;;;37.63;20.35;;;;;;;-1.83;nan;97269.34;2067072;28;20046;-59
2024/01/30 00:42:57;;;;;;;36.38;18.40;;;;;;;-1.80;nan;97269.41;2067099;28;20042;-60
2024/01/30 00:43:58;;;;;;;37.28;19.65;;;;;;;-1.75;nan;97268.66;2067248;28;20054;-60
2024/01/30 00:44:59;;;;;;;31.40;17.63;;;;;;;-1.77;nan;97266.06;2066370;28;20058;-62
2024/01/30 00:46:01;;;;;;;31.45;17.63;;;;;;;-1.73;nan;97269.53;2067016;28;20046;-59
2024/01/30 00:47:02;;;;;;;32.03;17.73;;;;;;;-1.77;nan;97260.97;2066733;28;20069;-60
2024/01/30 00:48:04;;;;;;;30.98;18.02;;;;;;;-1.73;nan;97262.75;2066755;28;20058;-59
2024/01/30 00:49:05;;;;;;;33.03;18.30;;;;;;;-1.75;nan;97266.97;2066997;28;20410;-60
2024/01/30 00:50:06;;;;;;;31.95;17.73;;;;;;;-1.75;nan;97266.97;2066536;28;20065;-60
2024/01/30 00:51:07;;;;;;;33.08;18.00;;;;;;;-1.72;nan;97264.47;2066294;28;20057;-59
2024/01/30 00:52:09;;;;;;;32.72;16.90;;;;;;;-1.72;nan;97274.66;2066433;28;20054;-60
2024/01/30 00:53:10;;;;;;;36.97;18.55;;;;;;;-1.79;nan;97265.19;2066275;28;20080;-60
2024/01/30 00:54:11;;;;;;;37.70;18.65;;;;;;;-1.77;nan;97276.25;2066972;28;20478;-60
2024/01/30 00:55:12;;;;;;;37.15;19.55;;;;;;;-1.75;nan;97273.75;2066659;28;20058;-62
2024/01/30 00:56:13;;;;;;;37.30;19.05;;;;;;;-1.80;nan;97276.19;2067080;28;20372;-60
2024/01/30 00:57:14;;;;;;;33.83;19.08;;;;;;;-1.79;nan;97277.91;2067018;28;20057;-62
2024/01/30 00:58:16;;;;;;;34.90;18.52;;;;;;;-1.82;nan;97278.72;2067305;28;20497;-61
2024/01/30 00:59:17;;;;;;;33.90;17.67;;;;;;;-1.86;nan;97281.16;2066872;28;20046;-62
2024/01/30 01:00:18;;;;;;;36.95;20.10;;;;;;;-1.94;nan;97287.75;2066734;28;20058;-59
2024/01/30 01:01:19;;;;;;;33.67;18.67;;;;;;;-2.03;nan;97279.09;2066898;28;20050;-60
2024/01/30 01:02:20;;;;;;;33.35;18.95;;;;;;;-2.01;nan;97287.59;2066901;28;20051;-60
2024/01/30 01:03:21;;;;;;;36.15;18.85;;;;;;;-2.03;nan;97286.72;2066834;28;20482;-60
2024/01/30 01:04:22;;;;;;;31.55;18.45;;;;;;;-2.05;nan;97290.06;2066342;28;20058;-60
2024/01/30 01:05:24;;;;;;;32.30;17.60;;;;;;;-2.10;nan;97289.09;2066621;28;20054;-59
2024/01/30 01:06:25;;;;;;;31.30;17.88;;;;;;;-2.11;nan;97288.25;2066781;28;20049;-60
2024/01/30 01:07:26;;;;;;;31.77;18.10;;;;;;;-2.10;nan;97296.75;2066851;28;20042;-60
2024/01/30 01:08:27;;;;;;;30.92;17.10;;;;;;;-2.11;nan;97293.34;2066923;28;20049;-60
2024/01/30 01:09:28;;;;;;;33.35;18.65;;;;;;;-2.13;nan;97287.34;2066959;28;20077;-60
2024/01/30 01:10:29;;;;;;;28.17;14.93;;;;;;;-2.11;nan;97290.78;2058119;28;20518;-60
2024/01/30 01:11:31;;;;;;;30.23;16.25;;;;;;;-2.06;nan;97289.22;2058385;28;20053;-64
2024/01/30 01:12:32;;;;;;;30.33;16.65;;;;;;;-2.01;nan;97291.84;2067057;28;20066;-60
2024/01/30 01:13:33;;;;;;;31.20;17.52;;;;;;;-2.11;nan;97295.88;2066549;28;20057;-60
2024/01/30 01:14:34;;;;;;;31.52;16.83;;;;;;;-2.20;nan;97290.56;2066520;28;20049;-60
2024/01/30 01:15:35;;;;;;;31.02;17.88;;;;;;;-2.08;nan;97295.94;2066905;28;20494;-60
2024/01/30 01:16:37;;;;;;;33.03;17.33;;;;;;;-2.08;nan;97295.94;2066139;28;20065;-60
2024/01/30 01:17:38;;;;;;;30.30;16.67;;;;;;;-2.13;nan;97282.25;2066864;28;20061;-62
2024/01/30 01:18:39;;;;;;;34.60;17.77;;;;;;;-2.14;nan;97293.25;2066708;28;20042;-62
2024/01/30 01:19:40;;;;;;;30.33;16.40;;;;;;;-2.14;nan;97293.25;2066758;28;20046;-60
2024/01/30 01:20:41;;;;;;;27.98;16.15;;;;;;;-2.21;nan;97296.50;2066326;28;20402;-62
2024/01/30 01:21:43;;;;;;;31.58;17.90;;;;;;;-2.23;nan;97296.44;2067059;28;20049;-60
2024/01/30 01:22:44;;;;;;;26.92;15.65;;;;;;;-2.19;nan;97287.22;2066275;28;20065;-60
2024/01/30 01:23:45;;;;;;;32.33;16.23;;;;;;;-2.13;nan;97292.44;2066874;28;20434;-62
2024/01/30 01:24:46;;;;;;;31.25;17.58;;;;;;;-2.17;nan;97290.63;2066055;28;20065;-62
2024/01/30 01:25:47;;;;;;;29.73;17.05;;;;;;;-2.16;nan;97289.81;2066465;28;20081;-62
2024/01/30 01:26:48;;;;;;;30.77;16.10;;;;;;;-2.15;nan;97286.44;2066400;28;20063;-62
2024/01/30 01:27:52;;;;;;;30.23;16.00;;;;;;;-2.15;nan;97288.97;2066784;28;20049;-62
2024/01/30 01:28:53;;;;;;;30.08;16.60;;;;;;;-2.19;nan;97292.31;2066850;28;20046;-62
2024/01/30 01:29:54;;;;;;;27.98;15.23;;;;;;;-2.31;nan;97287.75;2066643;28;20050;-60
2024/01/30 01:30:58;;;;;;;30.30;17.50;;;;;;;-2.38;nan;97292.66;2066107;28;20062;-62
2024/01/30 01:32:00;;;;;;;28.90;16.65;;;;;;;-2.42;nan;97289.19;2066570;28;20053;-62
2024/01/30 01:33:02;;;;;;;24.42;15.20;;;;;;;-2.42;nan;97293.44;2066667;28;20064;-63
2024/01/30 01:34:03;;;;;;;23.83;13.60;;;;;;;-2.45;nan;97292.53;2066845;28;20042;-60
2024/01/30 01:35:05;;;;;;;28.55;15.00;;;;;;;-2.44;nan;97288.28;2066687;28;20058;-60
2024/01/30 01:36:06;;;;;;;30.58;15.63;;;;;;;-2.43;nan;97292.59;2066803;28;20043;-60
2024/01/30 01:37:07;;;;;;;25.33;14.88;;;;;;;-2.35;nan;97295.28;2057739;28;20054;-60
2024/01/30 01:38:08;;;;;;;26.70;14.20;;;;;;;-2.34;nan;97292.78;2058078;28;20418;-60
2024/01/30 01:39:10;;;;;;;23.33;13.63;;;;;;;-2.32;nan;97295.38;2066698;28;20046;-60
2024/01/30 01:40:11;;;;;;;29.42;14.23;;;;;;;-2.26;nan;97287.88;2066049;28;20483;-59
2024/01/30 01:41:12;;;;;;;22.80;14.07;;;;;;;-2.26;nan;97285.34;2066795;28;20050;-60
2024/01/30 01:42:13;;;;;;;24.08;13.85;;;;;;;-2.23;nan;97295.59;2066541;28;20057;-60
2024/01/30 01:43:14;;;;;;;22.88;12.80;;;;;;;-2.13;nan;97284.81;2066020;28;20058;-60
2024/01/30 01:44:16;;;;;;;23.65;12.85;;;;;;;-2.08;nan;97282.38;2066328;28;20058;-59
2024/01/30 01:45:18;;;;;;;21.35;12.27;;;;;;;-2.07;nan;97276.44;2065953;28;20129;-60
2024/01/30 01:46:19;;;;;;;23.00;12.52;;;;;;;-2.04;nan;97279.03;2065117;28;20486;-62
2024/01/30 01:47:20;;;;;;;27.15;13.88;;;;;;;-2.05;nan;97287.53;2066218;28;20046;-62
2024/01/30 01:48:21;;;;;;;26.60;13.50;;;;;;;-2.11;nan;97280.59;2066241;28;20050;-60
2024/01/30 01:49:24;;;;;;;23.30;12.48;;;;;;;-2.07;nan;97284.94;2049770;29;20051;-62
2024/01/30 01:50:25;;;;;;;24.60;13.30;;;;;;;-2.11;nan;97277.19;2042514;28;20055;-60
2024/01/30 01:51:27;;;;;;;21.88;12.50;;;;;;;-2.15;nan;97280.50;2041688;29;20059;-59
2024/01/30 01:52:28;;;;;;;21.67;13.00;;;;;;;-2.12;nan;97291.59;2049455;28;20071;-62
2024/01/30 01:53:29;;;;;;;24.77;12.68;;;;;;;-2.09;nan;97290.81;2057712;28;20050;-61
2024/01/30 01:54:30;;;;;;;24.65;12.50;;;;;;;-2.13;nan;97291.59;2057764;28;20423;-61
2024/01/30 01:55:32;;;;;;;20.05;12.38;;;;;;;-2.16;nan;97288.97;2066470;28;20034;-62
2024/01/30 01:56:33;;;;;;;22.88;13.85;;;;;;;-2.24;nan;97288.78;2049759;29;20047;-61
2024/01/30 01:57:34;;;;;;;23.75;12.70;;;;;;;-2.17;nan;97285.53;2049532;28;20058;-62
2024/01/30 01:58:35;;;;;;;21.42;12.73;;;;;;;-2.13;nan;97287.34;2065705;28;20398;-61
2024/01/30 01:59:36;;;;;;;22.13;13.20;;;;;;;-2.11;nan;97285.69;2066073;28;20081;-62
2024/01/30 02:00:40;;;;;;;23.10;13.48;;;;;;;-2.17;nan;97275.34;2058046;28;20030;-62
2024/01/30 02:01:42;;;;;;;23.63;12.73;;;;;;;-2.15;nan;97283.91;2058167;28;20046;-60
2024/01/30 02:02:44;;;;;;;22.23;11.43;;;;;;;-2.18;nan;97280.44;2066405;28;20050;-62
2024/01/30 02:03:45;;;;;;;23.40;13.00;;;;;;;-2.20;nan;97279.53;2057741;28;20047;-62
2024/01/30 02:04:46;;;;;;;25.58;13.07;;;;;;;-2.22;nan;97282.03;2057680;28;20059;-62
2024/01/30 02:05:48;;;;;;;22.70;12.68;;;;;;;-2.22;nan;97275.28;2066692;28;20050;-62
2024/01/30 02:06:49;;;;;;;17.70;10.73;;;;;;;-2.20;nan;97280.38;2066526;28;20410;-62
2024/01/30 02:07:50;;;;;;;22.10;12.20;;;;;;;-2.18;nan;97283.81;2057663;28;20069;-62
2024/01/30 02:08:51;;;;;;;19.20;10.38;;;;;;;-2.18;nan;97281.28;2050009;28;20051;-62
2024/01/30 02:09:52;;;;;;;22.83;11.77;;;;;;;-2.19;nan;97286.31;2057672;28;20155;-62
2024/01/30 02:10:53;;;;;;;21.80;11.82;;;;;;;-2.20;nan;97287.16;2066700;28;20049;-62
2024/01/30 02:11:54;;;;;;;22.45;11.52;;;;;;;-2.27;nan;97276.00;2065853;28;20061;-62
2024/01/30 02:12:55;;;;;;;20.45;10.85;;;;;;;-2.23;nan;97282.84;2057325;28;20054;-61
2024/01/30 02:13:56;;;;;;;23.02;11.90;;;;;;;-2.25;nan;97279.41;2056999;28;20055;-62
2024/01/30 02:14:58;;;;;;;22.83;11.38;;;;;;;-2.27;nan;97278.53;2066374;28;20057;-61
2024/01/30 02:15:59;;;;;;;18.75;11.27;;;;;;;-2.31;nan;97280.13;2066481;28;20043;-62
2024/01/30 02:17:00;;;;;;;20.85;11.55;;;;;;;-2.31;nan;97279.28;2066514;28;20056;-62
2024/01/30 02:18:01;;;;;;;20.08;11.77;;;;;;;-2.33;nan;97279.22;2065649;28;20055;-62
2024/01/30 02:19:02;;;;;;;19.00;11.23;;;;;;;-2.33;nan;97281.78;2065483;28;20071;-63
2024/01/30 02:20:05;;;;;;;18.38;10.93;;;;;;;-2.35;nan;97280.00;2066300;28;20043;-62
2024/01/30 02:21:06;;;;;;;19.85;11.50;;;;;;;-2.36;nan;97283.41;2065996;28;20050;-61
2024/01/30 02:22:07;;;;;;;22.42;11.95;;;;;;;-2.38;nan;97279.94;2065893;28;20062;-62
2024/01/30 02:23:09;;;;;;;19.85;11.50;;;;;;;-2.41;nan;97284.97;2066051;28;20042;-62
2024/01/30 02:24:10;;;;;;;20.60;11.57;;;;;;;-2.43;nan;97282.41;2065873;28;20049;-62
2024/01/30 02:25:11;;;;;;;18.60;11.25;;;;;;;-2.43;nan;97272.22;2066077;28;20045;-62
2024/01/30 02:26:12;;;;;;;28.02;12.88;;;;;;;-2.41;nan;97279.88;2065383;28;20387;-61
2024/01/30 02:27:14;;;;;;;19.25;10.32;;;;;;;-2.40;nan;97276.53;2066149;28;20403;-61
2024/01/30 02:28:15;;;;;;;19.40;10.95;;;;;;;-2.41;nan;97283.28;2066322;28;20046;-61
2024/01/30 02:29:16;;;;;;;18.98;10.27;;;;;;;-2.42;nan;97278.16;2065958;28;20046;-61
2024/01/30 02:30:17;;;;;;;20.88;11.10;;;;;;;-2.41;nan;97272.25;2065833;28;20479;-61
2024/01/30 02:31:18;;;;;;;18.85;11.40;;;;;;;-2.44;nan;97271.34;2066458;28;20046;-62
2024/01/30 02:32:20;;;;;;;17.77;10.15;;;;;;;-2.40;nan;97272.28;2066345;28;20050;-61
2024/01/30 02:33:23;;;;;;;17.33;10.65;;;;;;;-2.36;nan;97274.06;2065652;28;20057;-61
2024/01/30 02:34:24;;;;;;;18.75;10.93;;;;;;;-2.31;nan;97269.09;2066372;28;20034;-61
2024/01/30 02:35:25;;;;;;;20.27;10.95;;;;;;;-2.34;nan;97274.97;2066426;28;20059;-61
2024/01/30 02:36:26;;;;;;;17.55;10.57;;;;;;;-2.30;nan;97269.16;2065447;28;20419;-61
2024/01/30 02:37:27;;;;;;;17.88;10.27;;;;;;;-2.19;nan;97277.03;2066318;28;20049;-61
2024/01/30 02:38:29;;;;;;;19.77;10.57;;;;;;;-2.17;nan;97264.31;2066364;28;20049;-61
2024/01/30 02:39:30;;;;;;;21.00;11.30;;;;;;;-2.16;nan;97269.47;2066264;28;20050;-61
2024/01/30 02:40:31;;;;;;;19.88;10.85;;;;;;;-2.16;nan;97260.97;2066086;28;20482;-61
2024/01/30 02:41:32;;;;;;;20.15;10.50;;;;;;;-2.14;nan;97262.69;2065417;28;20057;-61
2024/01/30 02:42:33;;;;;;;16.40;9.57;;;;;;;-2.13;nan;97261.88;2066346;28;20042;-62
2024/01/30 02:43:34;;;;;;;20.58;10.02;;;;;;;-2.13;nan;97266.97;2066336;28;20502;-61
2024/01/30 02:44:36;;;;;;;17.10;9.50;;;;;;;-2.11;nan;97256.81;2066205;28;20064;-61
2024/01/30 02:45:37;;;;;;;26.73;10.50;;;;;;;-2.12;nan;97250.88;2066009;28;20050;-61
2024/01/30 02:46:38;;;;;;;16.30;9.52;;;;;;;-2.13;nan;97261.88;2065436;28;20034;-61
2024/01/30 02:47:40;;;;;;;16.15;8.88;;;;;;;-2.14;nan;97249.13;2065956;28;20054;-62
2024/01/30 02:48:41;;;;;;;16.48;9.32;;;;;;;-2.11;nan;97257.69;2066049;28;20054;-60
2024/01/30 02:49:42;;;;;;;17.88;10.10;;;;;;;-2.12;nan;97257.66;2066176;28;20046;-61
2024/01/30 02:50:43;;;;;;;20.20;10.30;;;;;;;-2.08;nan;97259.47;2065133;28;20054;-61
2024/01/30 02:51:44;;;;;;;18.95;9.73;;;;;;;-2.04;nan;97251.91;2066398;28;20388;-61
2024/01/30 02:52:45;;;;;;;20.23;10.02;;;;;;;-2.11;nan;97247.53;2065499;28;20059;-61
2024/01/30 02:53:46;;;;;;;16.63;9.38;;;;;;;-2.06;nan;97245.06;2065713;28;20491;-61
2024/01/30 02:54:47;;;;;;;18.55;9.80;;;;;;;-2.06;nan;97258.66;2066096;28;20057;-61
2024/01/30 02:55:48;;;;;;;16.98;9.52;;;;;;;-2.09;nan;97258.56;2066044;28;20069;-61
2024/01/30 02:56:49;;;;;;;15.25;8.90;;;;;;;-2.09;nan;97255.16;2065560;28;20042;-61
2024/01/30 02:57:51;;;;;;;13.98;8.95;;;;;;;-2.10;nan;97261.09;2064686;28;20062;-61
2024/01/30 02:58:52;;;;;;;15.57;9.18;;;;;;;-2.10;nan;97261.09;2057464;28;20487;-61
2024/01/30 02:59:53;;;;;;;16.83;9.48;;;;;;;-2.13;nan;97259.34;2057392;28;20047;-61
2024/01/30 03:00:54;;;;;;;17.27;9.10;;;;;;;-2.10;nan;97261.09;2066035;28;20130;-61
2024/01/30 03:01:55;;;;;;;14.73;8.90;;;;;;;-2.10;nan;97251.78;2066087;28;20043;-61
2024/01/30 03:02:56;;;;;;;15.27;9.05;;;;;;;-2.05;nan;97246.78;2065365;28;20054;-61
2024/01/30 03:03:57;;;;;;;14.15;7.78;;;;;;;-2.07;nan;97256.94;2065312;28;20406;-61
2024/01/30 03:04:59;;;;;;;14.25;8.35;;;;;;;-2.03;nan;97247.69;2066248;28;20049;-61
2024/01/30 03:06:00;;;;;;;20.35;8.95;;;;;;;-2.08;nan;97244.19;2065696;28;20050;-61
2024/01/30 03:07:01;;;;;;;14.13;8.95;;;;;;;-2.14;nan;97252.50;2065461;28;20406;-61
2024/01/30 03:08:04;;;;;;;15.90;8.27;;;;;;;-2.12;nan;97253.41;2066008;28;20047;-60
2024/01/30 03:09:05;;;;;;;14.80;8.00;;;;;;;-2.07;nan;97253.53;2065611;28;20046;-61
2024/01/30 03:10:07;;;;;;;13.52;7.45;;;;;;;-2.07;nan;97253.53;2066022;28;20046;-61
2024/01/30 03:11:08;;;;;;;15.38;8.30;;;;;;;-2.09;nan;97256.03;2065821;28;20051;-60
2024/01/30 03:12:09;;;;;;;15.18;8.73;;;;;;;-2.06;nan;97251.03;2065633;28;20058;-61
2024/01/30 03:13:10;;;;;;;16.10;9.35;;;;;;;-2.08;nan;97254.38;2065704;28;20054;-62
2024/01/30 03:14:11;;;;;;;14.63;8.23;;;;;;;-2.08;nan;97245.03;2066088;28;20149;-61
2024/01/30 03:15:12;;;;;;;15.18;8.43;;;;;;;-2.06;nan;97250.16;2065155;28;20393;-61
2024/01/30 03:16:13;;;;;;;18.27;8.95;;;;;;;-2.03;nan;97245.16;2065940;28;20502;-61
2024/01/30 03:17:14;;;;;;;14.38;8.50;;;;;;;-2.04;nan;97245.97;2065676;28;20069;-61
2024/01/30 03:18:15;;;;;;;17.67;9.02;;;;;;;-2.05;nan;97245.09;2065744;28;20054;-61
2024/01/30 03:19:16;;;;;;;15.45;8.38;;;;;;;-2.08;nan;97244.19;2065817;28;20050;-61
2024/01/30 03:20:18;;;;;;;14.43;7.90;;;;;;;-2.07;nan;97240.81;2065863;28;20039;-62
2024/01/30 03:21:19;;;;;;;14.88;8.23;;;;;;;-2.07;nan;97241.66;2065897;28;20050;-61
2024/01/30 03:22:20;;;;;;;15.43;8.65;;;;;;;-2.06;nan;97245.06;2056720;28;20525;-61
2024/01/30 03:23:21;;;;;;;14.68;8.13;;;;;;;-2.05;nan;97232.38;2057235;28;20058;-61
2024/01/30 03:24:22;;;;;;;13.30;7.57;;;;;;;-1.94;nan;97247.03;2065859;28;20038;-61
2024/01/30 03:25:23;;;;;;;14.48;7.70;;;;;;;-1.95;nan;97243.63;2065233;28;20058;-61
2024/01/30 03:26:25;;;;;;;14.38;7.97;;;;;;;-1.98;nan;97237.59;2065936;28;20042;-61
2024/01/30 03:27:26;;;;;;;15.18;7.72;;;;;;;-1.94;nan;97252.13;2065998;28;20046;-61
2024/01/30 03:28:27;;;;;;;14.52;7.97;;;;;;;-1.99;nan;97244.38;2065497;28;20054;-61
2024/01/30 03:29:28;;;;;;;14.20;7.93;;;;;;;-1.99;nan;97244.38;2065481;28;20062;-61
2024/01/30 03:30:29;;;;;;;12.88;8.02;;;;;;;-1.99;nan;97241.81;2065494;28;20042;-61
2024/01/30 03:31:30;;;;;;;15.75;7.53;;;;;;;-2.01;nan;97239.22;2065865;28;20046;-61
2024/01/30 03:32:31;;;;;;;15.43;7.55;;;;;;;-2.01;nan;97241.78;2065466;28;20054;-61
2024/01/30 03:33:32;;;;;;;12.02;7.32;;;;;;;-1.95;nan;97241.09;2065465;28;20506;-61
2024/01/30 03:34:33;;;;;;;14.68;8.13;;;;;;;-1.94;nan;97242.78;2065361;28;20050;-61
2024/01/30 03:35:35;;;;;;;15.05;6.90;;;;;;;-1.95;nan;97246.16;2065222;28;20073;-61
2024/01/30 03:36:36;;;;;;;12.90;7.68;;;;;;;-1.92;nan;97241.13;2065034;28;20098;-61
2024/01/30 03:37:37;;;;;;;12.32;7.00;;;;;;;-1.86;nan;97245.50;2065927;28;20038;-61
2024/01/30 03:38:38;;;;;;;15.68;7.40;;;;;;;-1.90;nan;97244.56;2065988;28;20042;-61
2024/01/30 03:39:39;;;;;;;12.10;7.40;;;;;;;-1.91;nan;97242.84;2065898;28;20355;-61
2024/01/30 03:40:40;;;;;;;11.82;7.60;;;;;;;-1.91;nan;97247.09;2065375;28;20054;-61
2024/01/30 03:41:43;;;;;;;12.52;7.28;;;;;;;-1.97;nan;97235.09;2065958;28;20046;-61
2024/01/30 03:42:44;;;;;;;11.32;7.38;;;;;;;-1.96;nan;97244.44;2065741;28;20042;-60
2024/01/30 03:43:45;;;;;;;11.98;6.82;;;;;;;-1.97;nan;97240.19;2065614;28;20387;-61
2024/01/30 03:44:46;;;;;;;14.32;7.00;;;;;;;-1.96;nan;97246.97;2065777;28;20046;-61
2024/01/30 03:45:47;;;;;;;15.13;7.13;;;;;;;-1.98;nan;97242.69;2065922;28;20046;-61
2024/01/30 03:46:48;;;;;;;12.63;7.15;;;;;;;-2.01;nan;97241.78;2064927;28;20394;-61
2024/01/30 03:47:49;;;;;;;11.60;6.55;;;;;;;-2.02;nan;97236.69;2064765;28;20050;-61
2024/01/30 03:48:50;;;;;;;11.88;7.13;;;;;;;-2.02;nan;97239.22;2065030;28;20065;-61
2024/01/30 03:49:51;;;;;;;13.13;7.60;;;;;;;-1.99;nan;97241.81;2065463;28;20410;-61
2024/01/30 03:50:53;;;;;;;11.43;7.13;;;;;;;-1.98;nan;97242.69;2065131;28;20054;-61
2024/01/30 03:51:54;;;;;;;13.82;6.85;;;;;;;-2.02;nan;97239.22;2065529;28;20046;-61
2024/01/30 03:52:55;;;;;;;10.30;6.30;;;;;;;-2.04;nan;97238.31;2065751;28;20045;-62
2024/01/30 03:53:56;;;;;;;11.48;6.75;;;;;;;-2.08;nan;97237.41;2065931;28;20061;-61
2024/01/30 03:54:57;;;;;;;15.48;7.68;;;;;;;-2.07;nan;97231.47;2065716;28;20069;-61
2024/01/30 03:55:58;;;;;;;11.50;6.70;;;;;;;-2.10;nan;97236.50;2065549;28;20502;-61
2024/01/30 03:56:59;;;;;;;14.40;7.38;;;;;;;-2.10;nan;97235.66;2065867;28;20054;-61
2024/01/30 03:58:00;;;;;;;11.27;6.35;;;;;;;-2.13;nan;97236.44;2065099;28;20056;-61
2024/01/30 03:59:02;;;;;;;12.20;6.47;;;;;;;-2.13;nan;97236.44;2065585;28;20064;-61
2024/01/30 04:00:04;;;;;;;12.77;6.57;;;;;;;-2.11;nan;97239.88;2065869;28;20053;-61
2024/01/30 04:01:16;;;;;;;14.40;7.30;;;;;;;-2.12;nan;97247.47;2065848;28;20038;-61
2024/01/30 04:02:17;;;;;;;12.27;6.38;;;;;;;-2.12;nan;97238.16;2065422;28;20050;-61
2024/01/30 04:03:18;;;;;;;10.73;6.80;;;;;;;-2.12;nan;97239.84;2065090;28;20050;-61
2024/01/30 04:04:20;;;;;;;12.20;6.57;;;;;;;-2.09;nan;97232.25;2065150;28;20050;-61
2024/01/30 04:05:21;;;;;;;12.35;6.30;;;;;;;-2.10;nan;97241.59;2065548;28;20498;-60
2024/01/30 04:06:22;;;;;;;11.85;6.60;;;;;;;-2.10;nan;97239.03;2065544;28;20050;-61
2024/01/30 04:07:23;;;;;;;15.75;7.45;;;;;;;-2.11;nan;97239.88;2065538;28;20042;-61
2024/01/30 04:08:24;;;;;;;9.02;6.20;;;;;;;-2.11;nan;97234.78;2065466;28;20042;-60
2024/01/30 04:09:26;;;;;;;13.43;6.97;;;;;;;-2.12;nan;97238.16;2065704;28;20038;-61
2024/01/30 04:10:27;;;;;;;12.30;6.47;;;;;;;-2.12;nan;97233.06;2065379;28;20050;-61
2024/01/30 04:11:28;;;;;;;10.65;5.93;;;;;;;-2.11;nan;97241.53;2065406;28;20390;-61
2024/01/30 04:12:29;;;;;;;12.98;6.47;;;;;;;-2.06;nan;97242.50;2064972;28;20069;-61
2024/01/30 04:13:30;;;;;;;12.50;6.32;;;;;;;-2.04;nan;97240.88;2065008;28;20104;-61
2024/01/30 04:14:31;;;;;;;10.48;6.25;;;;;;;-2.06;nan;97237.41;2065484;28;20061;-60
2024/01/30 04:15:32;;;;;;;12.40;5.32;;;;;;;-2.05;nan;97242.56;2065486;28;20038;-61
2024/01/30 04:16:34;;;;;;;10.52;5.53;;;;;;;-2.08;nan;97234.84;2065617;28;20475;-61
2024/01/30 04:17:35;;;;;;;9.52;5.25;;;;;;;-2.05;nan;97241.69;2065000;28;20394;-61
2024/01/30 04:18:36;;;;;;;11.40;6.10;;;;;;;-2.09;nan;97240.75;2064843;28;20054;-61
2024/01/30 04:19:38;;;;;;;10.32;6.38;;;;;;;-2.11;nan;97244.97;2065462;28;20053;-61
2024/01/30 04:20:39;;;;;;;13.30;6.20;;;;;;;-2.12;nan;97238.16;2065502;28;20042;-60
2024/01/30 04:21:40;;;;;;;11.05;6.47;;;;;;;-2.11;nan;97239.00;2065406;28;20042;-61
2024/01/30 04:22:44;;;;;;;11.23;6.22;;;;;;;-2.17;nan;97241.41;2065497;28;20046;-61
2024/01/30 04:23:46;;;;;;;14.23;6.93;;;;;;;-2.10;nan;97235.66;2064961;28;20047;-61
2024/01/30 04:24:47;;;;;;;15.00;7.22;;;;;;;-2.17;nan;97236.31;2064783;28;20050;-61
2024/01/30 04:25:48;;;;;;;12.27;6.03;;;;;;;-2.15;nan;97240.63;2065666;28;20038;-61
2024/01/30 04:26:49;;;;;;;12.60;6.25;;;;;;;-2.17;nan;97239.72;2065568;28;20042;-61
2024/01/30 04:27:50;;;;;;;10.35;6.15;;;;;;;-2.16;nan;97246.56;2065199;28;20054;-61
2024/01/30 04:28:51;;;;;;;11.48;6.07;;;;;;;-2.16;nan;97246.56;2065112;28;20458;-61
2024/01/30 04:29:52;;;;;;;9.65;5.85;;;;;;;-2.14;nan;97237.25;2064884;28;20479;-61
2024/01/30 04:30:54;;;;;;;11.38;6.22;;;;;;;-2.15;nan;97242.31;2065429;28;20046;-61
2024/01/30 04:31:55;;;;;;;11.82;6.70;;;;;;;-2.12;nan;97247.47;2065619;28;20054;-61
2024/01/30 04:32:56;;;;;;;11.13;6.20;;;;;;;-2.12;nan;97238.16;2065206;28;20050;-61
2024/01/30 04:33:57;;;;;;;11.80;6.50;;;;;;;-2.12;nan;97247.47;2064519;28;20050;-61
2024/01/30 04:34:58;;;;;;;11.68;6.72;;;;;;;-2.15;nan;97243.16;2065525;28;20038;-62
2024/01/30 04:35:59;;;;;;;12.25;6.32;;;;;;;-2.14;nan;97247.44;2065630;28;20492;-61
2024/01/30 04:37:00;;;;;;;13.90;6.72;;;;;;;-2.15;nan;97250.81;2065556;28;20050;-61
2024/01/30 04:38:01;;;;;;;12.10;6.82;;;;;;;-2.12;nan;97247.47;2064915;28;20058;-61
2024/01/30 04:39:03;;;;;;;10.80;6.38;;;;;;;-2.17;nan;97238.88;2065402;28;20061;-61
2024/01/30 04:40:05;;;;;;;12.07;6.03;;;;;;;-2.17;nan;97251.59;2065052;28;20057;-61
2024/01/30 04:41:07;;;;;;;12.63;6.70;;;;;;;-2.20;nan;97256.63;2065248;28;20489;-61
2024/01/30 04:42:08;;;;;;;11.85;6.40;;;;;;;-2.22;nan;97254.03;2065190;28;20050;-61
2024/01/30 04:43:09;;;;;;;12.85;6.50;;;;;;;-2.21;nan;97255.78;2064890;28;20050;-61
2024/01/30 04:44:10;;;;;;;12.65;6.90;;;;;;;-2.23;nan;97247.22;2064500;28;20050;-61
2024/01/30 04:45:12;;;;;;;11.60;7.20;;;;;;;-2.27;nan;97248.00;2065484;28;20046;-61
2024/01/30 04:46:13;;;;;;;14.43;7.03;;;;;;;-2.29;nan;97253.03;2065468;28;20042;-61
2024/01/30 04:47:14;;;;;;;11.35;6.05;;;;;;;-2.27;nan;97248.84;2064312;28;20061;-61
2024/01/30 04:48:15;;;;;;;12.50;6.97;;;;;;;-2.25;nan;97248.88;2065143;28;20088;-61
2024/01/30 04:49:16;;;;;;;13.50;6.22;;;;;;;-2.26;nan;97242.06;2065145;28;20579;-61